Time;durP1;ratioP1;P1;durP2;ratioP2;P2;SDS_P1;SDS_P2;PMS_P1;PMS_P2;Temp;Humidity;BMP_temperature;BMP_pressure;BME280_temperature;BME280_humidity;BME280_pressure;Samples;Min_cycle;Max_cycle;Signal;HPM_P1;HPM_P2
2022/03/04 00:00:58;;;;;;;27.95;12.60;;;6.80;39.60;;;;;;5020544;28;20726;-42
2022/03/04 00:03:26;;;;;;;25.10;13.05;;;6.80;39.70;;;;;;5018306;28;20053;-42
2022/03/04 00:05:53;;;;;;;24.38;12.65;;;6.80;39.80;;;;;;5022028;28;20057;-41
2022/03/04 00:08:21;;;;;;;21.80;12.18;;;6.70;39.80;;;;;;5021097;28;20050;-44
2022/03/04 00:10:48;;;;;;;21.15;11.65;;;6.70;39.80;;;;;;5022524;28;20133;-41
2022/03/04 00:13:16;;;;;;;24.58;13.20;;;6.70;39.90;;;;;;5018738;28;20045;-41
2022/03/04 00:15:45;;;;;;;29.73;13.32;;;6.70;39.90;;;;;;5019999;28;20442;-41
2022/03/04 00:18:12;;;;;;;23.42;12.93;;;6.60;39.90;;;;;;4999853;28;20050;-43
2022/03/04 00:20:40;;;;;;;24.35;13.60;;;6.60;39.90;;;;;;5020719;28;20053;-42
2022/03/04 00:23:07;;;;;;;23.80;13.25;;;6.60;40.10;;;;;;5018484;28;20497;-41
2022/03/04 00:25:35;;;;;;;23.75;12.90;;;6.50;40.10;;;;;;5020452;28;20041;-41
2022/03/04 00:28:03;;;;;;;22.70;12.23;;;6.50;40.10;;;;;;5022448;28;20065;-41
2022/03/04 00:30:31;;;;;;;22.92;13.00;;;6.50;40.20;;;;;;5021736;28;20524;-42
2022/03/04 00:33:00;;;;;;;20.00;10.73;;;6.50;40.30;;;;;;5021786;28;20049;-42
2022/03/04 00:35:28;;;;;;;26.33;13.02;;;6.40;40.80;;;;;;5023142;28;20444;-41
2022/03/04 00:37:55;;;;;;;19.35;11.85;;;6.40;40.40;;;;;;5024595;28;20049;-47
2022/03/04 00:40:23;;;;;;;25.67;13.55;;;6.40;40.40;;;;;;5025690;28;20054;-42
2022/03/04 00:42:51;;;;;;;23.70;12.43;;;6.40;40.50;;;;;;5022143;28;20053;-42
2022/03/04 00:45:18;;;;;;;20.67;12.13;;;6.40;40.50;;;;;;5024206;28;20053;-42
2022/03/04 00:47:46;;;;;;;23.25;12.93;;;6.30;40.50;;;;;;5023303;28;20049;-41
2022/03/04 00:50:15;;;;;;;21.10;11.57;;;6.30;40.60;;;;;;5023627;28;20053;-42
2022/03/04 00:52:42;;;;;;;20.23;11.85;;;6.30;40.60;;;;;;5023678;28;20543;-44
2022/03/04 00:55:10;;;;;;;23.88;12.60;;;6.30;40.70;;;;;;5022525;28;20061;-42
2022/03/04 00:57:38;;;;;;;22.33;11.90;;;6.30;40.70;;;;;;5023885;28;20060;-42
2022/03/04 01:00:07;;;;;;;22.27;11.68;;;6.30;40.70;;;;;;5022875;28;20053;-42
2022/03/04 01:02:34;;;;;;;20.90;11.25;;;6.20;40.70;;;;;;5024196;28;20049;-42
2022/03/04 01:05:02;;;;;;;21.13;11.20;;;6.20;40.70;;;;;;5022086;28;20053;-41
2022/03/04 01:07:31;;;;;;;19.30;11.95;;;6.20;40.70;;;;;;5023667;28;20049;-42
2022/03/04 01:09:58;;;;;;;22.70;12.30;;;6.10;40.80;;;;;;5007887;28;20057;-42
2022/03/04 01:12:26;;;;;;;18.73;11.13;;;6.10;40.90;;;;;;5024928;28;20418;-42
2022/03/04 01:14:55;;;;;;;26.70;12.98;;;6.10;40.90;;;;;;5021856;28;20863;-42
2022/03/04 01:17:22;;;;;;;20.83;11.90;;;6.10;41.00;;;;;;5021507;28;20072;-41
2022/03/04 01:19:50;;;;;;;24.60;13.30;;;6.10;41.10;;;;;;5022828;28;20060;-42
2022/03/04 01:22:17;;;;;;;23.27;12.55;;;6.00;41.10;;;;;;5023581;28;20072;-42
2022/03/04 01:24:46;;;;;;;23.02;12.55;;;6.00;41.10;;;;;;5020106;28;20077;-42
2022/03/04 01:27:14;;;;;;;20.90;12.10;;;6.00;41.70;;;;;;5023696;28;20049;-44
2022/03/04 01:29:42;;;;;;;22.70;12.93;;;6.00;41.30;;;;;;5022962;28;20056;-42
2022/03/04 01:32:09;;;;;;;21.23;11.20;;;5.90;41.20;;;;;;5023101;28;20060;-42
2022/03/04 01:34:37;;;;;;;25.23;13.45;;;5.90;41.30;;;;;;5017287;28;20603;-42
2022/03/04 01:37:05;;;;;;;20.58;12.38;;;5.90;41.40;;;;;;5022766;28;20497;-42
2022/03/04 01:39:33;;;;;;;25.33;14.00;;;5.90;41.40;;;;;;5023347;28;20490;-45
2022/03/04 01:42:02;;;;;;;22.67;13.35;;;5.90;41.40;;;;;;5021499;28;20058;-42
2022/03/04 01:44:30;;;;;;;25.48;12.57;;;5.80;41.40;;;;;;5020176;28;20097;-42
2022/03/04 01:46:58;;;;;;;18.27;10.82;;;5.80;41.40;;;;;;5021666;28;20053;-42
2022/03/04 01:49:25;;;;;;;27.88;13.30;;;5.80;41.50;;;;;;5021783;28;20058;-43
2022/03/04 01:51:53;;;;;;;22.30;11.90;;;5.80;41.60;;;;;;5021975;28;20060;-41
2022/03/04 01:54:20;;;;;;;25.98;13.82;;;5.80;41.60;;;;;;5020605;28;20064;-42
2022/03/04 01:56:48;;;;;;;23.95;13.25;;;5.70;41.70;;;;;;5022140;28;20065;-42
2022/03/04 01:59:18;;;;;;;25.73;13.68;;;5.70;41.70;;;;;;5021561;28;20120;-45
2022/03/04 02:01:45;;;;;;;22.42;12.63;;;5.70;41.70;;;;;;5021474;28;20064;-42
2022/03/04 02:04:13;;;;;;;23.10;13.10;;;5.70;41.80;;;;;;5018952;28;20053;-42
2022/03/04 02:06:40;;;;;;;26.30;14.00;;;5.70;41.90;;;;;;5023758;28;20405;-42
2022/03/04 02:09:08;;;;;;;24.20;14.20;;;5.70;42.00;;;;;;5023552;28;20053;-42
2022/03/04 02:11:38;;;;;;;26.23;14.02;;;5.60;42.50;;;;;;5021835;28;20045;-42
2022/03/04 02:14:06;;;;;;;24.42;13.23;;;5.60;42.00;;;;;;5021553;28;20057;-42
2022/03/04 02:16:41;;;;;;;23.20;13.15;;;5.60;42.00;;;;;;5022352;28;20060;-41
2022/03/04 02:19:08;;;;;;;20.98;11.95;;;5.60;42.10;;;;;;5022069;28;20064;-42
2022/03/04 02:21:36;;;;;;;25.58;13.30;;;5.50;42.00;;;;;;5024048;28;20053;-41
2022/03/04 02:24:06;;;;;;;22.60;12.73;;;5.50;42.00;;;;;;5020710;28;20060;-42
2022/03/04 02:26:34;;;;;;;30.75;14.27;;;5.50;42.10;;;;;;5022851;28;20053;-41
2022/03/04 02:29:01;;;;;;;24.05;13.38;;;5.50;42.20;;;;;;5022779;28;20057;-42
2022/03/04 02:31:29;;;;;;;22.45;12.65;;;5.50;42.20;;;;;;5019767;28;20057;-42
2022/03/04 02:33:56;;;;;;;27.50;14.88;;;5.50;42.30;;;;;;5018672;28;20099;-42
2022/03/04 02:36:24;;;;;;;23.92;13.05;;;5.40;42.30;;;;;;5019806;28;20057;-42
2022/03/04 02:38:52;;;;;;;25.13;13.07;;;5.40;42.40;;;;;;5016924;28;20065;-42
2022/03/04 02:41:21;;;;;;;20.42;12.02;;;5.40;42.30;;;;;;5022340;28;20044;-42
2022/03/04 02:43:48;;;;;;;22.15;12.32;;;5.40;42.40;;;;;;5019863;28;20068;-42
2022/03/04 02:46:16;;;;;;;21.90;12.05;;;5.40;42.40;;;;;;5020712;28;20132;-42
2022/03/04 02:48:44;;;;;;;22.45;11.82;;;5.40;42.40;;;;;;5020925;28;20053;-42
2022/03/04 02:51:11;;;;;;;27.10;14.00;;;5.40;42.50;;;;;;5021299;28;20061;-42
2022/03/04 02:53:39;;;;;;;22.38;12.93;;;5.40;42.50;;;;;;5020135;28;20509;-42
2022/03/04 02:56:06;;;;;;;22.73;12.50;;;5.30;42.50;;;;;;5020850;28;20497;-42
2022/03/04 02:58:35;;;;;;;25.15;13.40;;;5.30;42.50;;;;;;5020710;28;20481;-42
2022/03/04 03:01:03;;;;;;;21.27;12.63;;;5.30;42.60;;;;;;5022713;28;20068;-42
2022/03/04 03:03:30;;;;;;;20.20;11.40;;;5.30;42.60;;;;;;5017762;28;20068;-42
2022/03/04 03:05:58;;;;;;;21.00;12.07;;;5.30;42.60;;;;;;5021213;28;20068;-45
2022/03/04 03:08:26;;;;;;;21.42;12.82;;;5.30;42.60;;;;;;5020935;28;20046;-43
2022/03/04 03:10:53;;;;;;;24.65;13.95;;;5.30;42.70;;;;;;5022075;28;20052;-42
2022/03/04 03:13:21;;;;;;;23.40;12.90;;;5.20;42.70;;;;;;5018234;28;20049;-42
2022/03/04 03:15:50;;;;;;;24.90;13.60;;;5.20;42.80;;;;;;5020404;28;20053;-41
2022/03/04 03:18:18;;;;;;;23.35;12.57;;;5.20;42.80;;;;;;5020990;28;20045;-44
2022/03/04 03:20:46;;;;;;;22.70;12.77;;;5.20;42.80;;;;;;5021927;28;20049;-41
2022/03/04 03:23:14;;;;;;;28.00;13.23;;;5.10;42.70;;;;;;5019393;28;20076;-42
2022/03/04 03:25:41;;;;;;;23.90;13.70;;;5.10;42.80;;;;;;5020720;28;20064;-41
2022/03/04 03:28:09;;;;;;;25.67;14.07;;;5.00;42.80;;;;;;5021699;28;20057;-45
2022/03/04 03:30:36;;;;;;;25.27;13.52;;;5.00;42.80;;;;;;5021747;28;20056;-42
2022/03/04 03:33:05;;;;;;;26.52;13.40;;;5.00;42.80;;;;;;5018185;28;20497;-43
2022/03/04 03:35:33;;;;;;;28.52;13.68;;;5.00;42.90;;;;;;5020314;28;20049;-42
2022/03/04 03:38:00;;;;;;;26.83;13.48;;;4.90;42.80;;;;;;5021204;28;20050;-41
2022/03/04 03:40:28;;;;;;;24.92;13.77;;;4.90;42.90;;;;;;5020605;28;20049;-42
2022/03/04 03:42:55;;;;;;;26.25;14.35;;;4.90;43.00;;;;;;5016836;28;20061;-41
2022/03/04 03:45:23;;;;;;;22.92;13.50;;;4.80;42.90;;;;;;5017519;28;20049;-42
2022/03/04 03:47:52;;;;;;;26.25;14.65;;;4.80;43.00;;;;;;5020252;28;20060;-42
2022/03/04 03:50:21;;;;;;;25.38;14.10;;;4.80;43.00;;;;;;5018507;28;20054;-41
2022/03/04 03:52:49;;;;;;;27.77;14.57;;;4.80;43.10;;;;;;5015421;28;20064;-41
2022/03/04 03:55:16;;;;;;;22.60;12.68;;;4.80;43.10;;;;;;5018653;28;20053;-42
2022/03/04 03:57:44;;;;;;;22.67;12.95;;;4.80;43.20;;;;;;5017923;28;20046;-41
2022/03/04 04:00:13;;;;;;;21.33;12.20;;;4.70;43.20;;;;;;5017190;28;20050;-44
2022/03/04 04:02:41;;;;;;;22.40;12.50;;;4.70;43.20;;;;;;5020817;28;20064;-41
2022/03/04 04:05:10;;;;;;;27.58;14.63;;;4.70;43.30;;;;;;5017350;28;20049;-42
2022/03/04 04:07:40;;;;;;;32.03;14.77;;;4.70;43.30;;;;;;5025207;28;20485;-41
2022/03/04 04:10:08;;;;;;;25.27;13.98;;;4.70;43.50;;;;;;5022505;28;20053;-41
2022/03/04 04:12:36;;;;;;;25.73;14.13;;;4.70;43.50;;;;;;5023742;28;20054;-43
2022/03/04 04:15:04;;;;;;;22.90;12.73;;;4.60;43.50;;;;;;5023947;28;20053;-42
2022/03/04 04:17:32;;;;;;;24.08;12.90;;;4.60;43.50;;;;;;5007767;28;20046;-41
2022/03/04 04:19:59;;;;;;;21.05;12.10;;;4.60;43.50;;;;;;5020300;28;20100;-41
2022/03/04 04:22:27;;;;;;;25.40;14.25;;;4.60;43.50;;;;;;5021134;28;20077;-41
2022/03/04 04:24:56;;;;;;;27.80;14.60;;;4.60;43.60;;;;;;5020787;28;20086;-44
2022/03/04 04:27:23;;;;;;;29.38;13.98;;;4.50;43.70;;;;;;5020889;28;20049;-41
2022/03/04 04:29:51;;;;;;;23.88;13.95;;;4.50;43.70;;;;;;5022884;28;20064;-42
2022/03/04 04:32:19;;;;;;;26.67;14.35;;;4.50;43.80;;;;;;5019924;28;20068;-41
2022/03/04 04:34:46;;;;;;;27.25;14.75;;;4.50;43.90;;;;;;5018105;28;20057;-42
2022/03/04 04:37:14;;;;;;;78.75;31.95;;;4.50;43.90;;;;;;5019886;28;20045;-42
2022/03/04 04:39:41;;;;;;;39.25;18.10;;;4.40;43.90;;;;;;5019798;28;20053;-42
2022/03/04 04:42:10;;;;;;;30.05;15.30;;;4.40;44.00;;;;;;5022488;28;20506;-42
2022/03/04 04:44:38;;;;;;;29.30;13.68;;;4.40;44.10;;;;;;5018084;28;20064;-41
2022/03/04 04:47:07;;;;;;;27.00;14.40;;;4.40;44.10;;;;;;5021380;28;20080;-42
2022/03/04 04:49:36;;;;;;;26.45;14.35;;;4.40;44.10;;;;;;5021892;28;20073;-41
2022/03/04 04:52:05;;;;;;;25.42;13.02;;;4.40;44.10;;;;;;5022539;28;20049;-41
2022/03/04 04:54:34;;;;;;;26.35;13.50;;;4.40;44.00;;;;;;5023383;28;20053;-43
2022/03/04 04:57:01;;;;;;;29.90;14.77;;;4.30;43.90;;;;;;5023018;28;20413;-41
2022/03/04 04:59:31;;;;;;;26.27;14.13;;;4.30;43.90;;;;;;5023634;28;20084;-42
2022/03/04 05:01:58;;;;;;;24.80;13.35;;;4.30;43.90;;;;;;5021741;28;20057;-41
2022/03/04 05:04:26;;;;;;;28.55;14.32;;;4.30;44.00;;;;;;5021495;28;20049;-41
2022/03/04 05:06:54;;;;;;;24.08;13.38;;;4.20;43.90;;;;;;5023761;28;20057;-42
2022/03/04 05:09:21;;;;;;;25.67;14.23;;;4.20;44.00;;;;;;5023223;28;20057;-43
2022/03/04 05:11:49;;;;;;;26.60;13.43;;;4.20;44.10;;;;;;5022400;28;20058;-41
2022/03/04 05:14:16;;;;;;;26.70;13.05;;;4.20;44.10;;;;;;5023125;28;20417;-42
2022/03/04 05:16:45;;;;;;;26.77;13.00;;;4.10;44.10;;;;;;5019612;28;20189;-41
2022/03/04 05:19:13;;;;;;;25.80;13.95;;;4.10;44.20;;;;;;5019519;28;20053;-48
2022/03/04 05:21:40;;;;;;;21.90;12.13;;;4.20;44.30;;;;;;5022647;28;20064;-45
2022/03/04 05:24:09;;;;;;;25.33;12.93;;;4.10;44.30;;;;;;5017505;28;20065;-42
2022/03/04 05:26:39;;;;;;;23.85;12.45;;;4.10;44.40;;;;;;5016255;28;20072;-41
2022/03/04 05:29:09;;;;;;;22.88;12.95;;;4.10;44.50;;;;;;5008912;28;20049;-42
2022/03/04 05:31:38;;;;;;;26.90;12.85;;;4.10;44.50;;;;;;5009850;28;20053;-41
2022/03/04 05:34:08;;;;;;;24.45;12.90;;;4.10;44.60;;;;;;5008261;28;21510;-45
2022/03/04 05:36:37;;;;;;;29.35;14.60;;;4.10;44.60;;;;;;5008118;28;20072;-47
2022/03/04 05:39:05;;;;;;;23.80;13.40;;;4.00;44.60;;;;;;5018889;28;20523;-41
2022/03/04 05:41:33;;;;;;;23.75;13.13;;;4.00;44.60;;;;;;5008036;28;20092;-44
2022/03/04 05:44:03;;;;;;;23.38;13.18;;;4.00;44.50;;;;;;5001203;28;20057;-41
2022/03/04 05:46:32;;;;;;;21.42;11.75;;;4.00;44.60;;;;;;5008139;28;20416;-42
2022/03/04 05:48:59;;;;;;;22.25;12.13;;;4.00;44.60;;;;;;5009698;28;20049;-45
2022/03/04 05:51:29;;;;;;;24.98;13.30;;;4.00;44.60;;;;;;5009286;28;20053;-43
2022/03/04 05:53:57;;;;;;;23.27;13.02;;;3.90;44.70;;;;;;5007320;28;20058;-42
2022/03/04 05:56:25;;;;;;;23.63;13.35;;;3.90;44.70;;;;;;5007736;28;20048;-42
2022/03/04 05:58:53;;;;;;;25.80;12.85;;;3.90;44.80;;;;;;5012083;28;20053;-42
2022/03/04 06:01:22;;;;;;;26.85;13.63;;;3.90;44.80;;;;;;5009652;28;20060;-41
2022/03/04 06:03:50;;;;;;;24.48;12.43;;;3.90;44.80;;;;;;5018525;28;20057;-42
2022/03/04 06:06:19;;;;;;;23.15;13.23;;;3.90;44.80;;;;;;5022999;28;20060;-41
2022/03/04 06:08:48;;;;;;;28.75;13.52;;;3.80;44.80;;;;;;5022316;28;20482;-41
2022/03/04 06:11:16;;;;;;;25.63;14.32;;;3.80;44.80;;;;;;5020057;28;20068;-41
2022/03/04 06:13:43;;;;;;;27.17;14.88;;;3.80;44.80;;;;;;5019501;28;20053;-42
2022/03/04 06:16:11;;;;;;;28.05;15.18;;;3.80;44.80;;;;;;5014427;28;20064;-46
2022/03/04 06:18:39;;;;;;;26.58;14.60;;;3.80;44.80;;;;;;5012264;28;20053;-43
2022/03/04 06:21:07;;;;;;;28.27;13.93;;;3.70;44.80;;;;;;5009471;28;20060;-41
2022/03/04 06:23:36;;;;;;;24.50;13.35;;;3.70;44.80;;;;;;5009991;28;20058;-42
2022/03/04 06:26:05;;;;;;;23.70;12.73;;;3.70;44.90;;;;;;5010412;28;20087;-42
2022/03/04 06:28:32;;;;;;;31.85;15.38;;;3.70;44.90;;;;;;5009315;28;20072;-44
2022/03/04 06:31:03;;;;;;;25.83;14.77;;;3.70;45.00;;;;;;5016677;28;20060;-41
2022/03/04 06:33:32;;;;;;;25.25;13.68;;;3.70;45.10;;;;;;5020231;28;20049;-42
2022/03/04 06:36:05;;;;;;;28.73;14.63;;;3.70;45.10;;;;;;5021853;28;20061;-41
2022/03/04 06:38:34;;;;;;;50.47;22.33;;;3.60;45.10;;;;;;5020188;28;20053;-41
2022/03/04 06:41:02;;;;;;;49.85;23.20;;;3.60;45.20;;;;;;5022147;28;20064;-42
2022/03/04 06:43:31;;;;;;;34.60;17.95;;;3.60;45.20;;;;;;5020424;28;20061;-41
2022/03/04 06:46:01;;;;;;;33.78;16.35;;;3.60;45.30;;;;;;5021971;28;20057;-41
2022/03/04 06:48:31;;;;;;;26.85;13.30;;;3.60;45.30;;;;;;5019726;28;20053;-43
2022/03/04 06:51:02;;;;;;;22.17;11.90;;;3.60;45.40;;;;;;5019604;28;20057;-41
2022/03/04 06:53:31;;;;;;;20.48;12.23;;;3.60;45.50;;;;;;5019309;28;20489;-42
2022/03/04 06:56:00;;;;;;;24.65;12.80;;;3.70;45.60;;;;;;5019360;28;20056;-41
2022/03/04 06:58:28;;;;;;;26.70;13.35;;;3.70;45.60;;;;;;5020425;28;20057;-44
2022/03/04 07:00:58;;;;;;;21.40;12.25;;;3.70;45.90;;;;;;5019432;28;20489;-43
2022/03/04 07:03:25;;;;;;;22.27;13.20;;;3.70;45.80;;;;;;5020911;28;20049;-43
2022/03/04 07:05:53;;;;;;;24.15;13.02;;;3.70;45.80;;;;;;5019725;28;20049;-42
2022/03/04 07:08:21;;;;;;;28.10;15.85;;;3.70;45.80;;;;;;5019851;28;20057;-41
2022/03/04 07:10:48;;;;;;;26.98;13.30;;;3.80;45.90;;;;;;5021487;28;20513;-41
2022/03/04 07:13:19;;;;;;;28.48;14.73;;;3.80;45.90;;;;;;5019923;28;20054;-42
2022/03/04 07:15:47;;;;;;;26.83;14.02;;;3.80;46.00;;;;;;5018943;28;20053;-41
2022/03/04 07:18:19;;;;;;;30.27;15.25;;;3.80;46.00;;;;;;5010030;28;20762;-41
2022/03/04 07:20:47;;;;;;;29.73;14.80;;;3.80;46.10;;;;;;5008412;28;20064;-41
2022/03/04 07:23:16;;;;;;;30.35;15.05;;;3.90;46.20;;;;;;5008977;28;20060;-42
2022/03/04 07:25:43;;;;;;;30.33;14.85;;;3.90;46.30;;;;;;5014927;28;20065;-41
2022/03/04 07:28:12;;;;;;;26.75;14.00;;;3.90;46.30;;;;;;5011951;28;20076;-42
2022/03/04 07:30:40;;;;;;;29.13;15.88;;;4.00;46.40;;;;;;5019637;28;20046;-41
2022/03/04 07:33:07;;;;;;;28.77;15.27;;;4.00;46.40;;;;;;5018534;28;20092;-42
2022/03/04 07:35:39;;;;;;;27.38;14.77;;;4.00;46.40;;;;;;5020430;28;20065;-41
2022/03/04 07:38:07;;;;;;;25.77;13.82;;;4.10;46.50;;;;;;5019841;28;20049;-41
2022/03/04 07:40:34;;;;;;;29.13;14.70;;;4.10;46.50;;;;;;5014297;28;20394;-42
2022/03/04 07:43:03;;;;;;;25.80;14.32;;;4.10;46.60;;;;;;5008772;28;20661;-41
2022/03/04 07:45:31;;;;;;;26.25;14.80;;;4.20;46.60;;;;;;5002916;28;20053;-46
2022/03/04 07:47:59;;;;;;;35.85;17.88;;;4.20;46.70;;;;;;5011971;28;20057;-41
2022/03/04 07:50:27;;;;;;;29.98;14.80;;;4.20;46.60;;;;;;5007226;28;20054;-41
2022/03/04 07:52:57;;;;;;;31.80;17.33;;;4.30;46.60;;;;;;5007731;28;20049;-45
2022/03/04 07:55:26;;;;;;;33.42;16.40;;;4.30;46.50;;;;;;5010109;28;20060;-41
2022/03/04 07:57:55;;;;;;;32.08;17.77;;;4.30;46.60;;;;;;5011169;28;20132;-43
2022/03/04 08:00:24;;;;;;;33.75;16.83;;;4.40;46.80;;;;;;5008215;28;20052;-42
2022/03/04 08:02:53;;;;;;;36.30;18.58;;;4.40;46.80;;;;;;5008471;28;20057;-41
2022/03/04 08:05:22;;;;;;;31.58;17.25;;;4.50;46.90;;;;;;5009559;28;20485;-42
2022/03/04 08:07:50;;;;;;;31.65;15.52;;;4.50;46.90;;;;;;5013003;28;20053;-41
2022/03/04 08:10:20;;;;;;;30.20;16.65;;;4.50;46.80;;;;;;5007903;28;20058;-44
2022/03/04 08:12:48;;;;;;;28.40;15.07;;;4.60;46.70;;;;;;5008056;28;20057;-44
2022/03/04 08:15:16;;;;;;;44.20;17.20;;;4.60;46.60;;;;;;5007810;28;20057;-43
2022/03/04 08:17:45;;;;;;;31.88;17.83;;;4.70;46.60;;;;;;5011600;28;20057;-43
2022/03/04 08:20:13;;;;;;;34.67;18.98;;;4.70;46.60;;;;;;5017265;28;20057;-41
2022/03/04 08:22:41;;;;;;;34.35;18.27;;;4.70;46.60;;;;;;5007121;28;20053;-41
2022/03/04 08:25:09;;;;;;;36.40;18.45;;;4.80;46.70;;;;;;5006847;28;20053;-42
2022/03/04 08:27:43;;;;;;;36.33;19.00;;;4.80;46.70;;;;;;5008920;28;20057;-41
2022/03/04 08:30:15;;;;;;;39.83;21.30;;;4.90;46.80;;;;;;5003940;28;20046;-42
2022/03/04 08:32:43;;;;;;;35.95;19.17;;;4.90;46.90;;;;;;5011418;28;20068;-42
2022/03/04 08:35:12;;;;;;;38.53;19.95;;;5.00;46.90;;;;;;5011507;28;20083;-41
2022/03/04 08:37:39;;;;;;;38.08;20.63;;;5.00;47.00;;;;;;5014293;28;20490;-41
2022/03/04 08:40:09;;;;;;;39.05;21.17;;;5.10;47.00;;;;;;5005176;28;21196;-43
2022/03/04 08:42:37;;;;;;;43.40;23.00;;;5.20;47.10;;;;;;4997619;28;20527;-41
2022/03/04 08:45:08;;;;;;;42.83;22.70;;;5.20;47.20;;;;;;5000427;28;20513;-44
2022/03/04 08:47:36;;;;;;;40.58;21.55;;;5.30;47.40;;;;;;5000512;28;20076;-43
2022/03/04 08:50:04;;;;;;;41.65;22.85;;;5.30;47.50;;;;;;4998094;28;20588;-42
2022/03/04 08:52:32;;;;;;;42.22;23.30;;;5.40;47.50;;;;;;5012819;28;20061;-45
2022/03/04 08:55:00;;;;;;;43.85;23.90;;;5.50;47.50;;;;;;5001984;28;20054;-42
2022/03/04 08:57:28;;;;;;;48.67;25.90;;;5.50;47.70;;;;;;5011714;28;20608;-41
2022/03/04 08:59:55;;;;;;;47.83;26.05;;;5.60;47.60;;;;;;5024263;28;20120;-41
2022/03/04 09:02:24;;;;;;;50.72;25.92;;;5.70;47.60;;;;;;5023950;28;20057;-41
2022/03/04 09:04:53;;;;;;;47.17;24.50;;;5.80;47.60;;;;;;5019474;28;20053;-42
2022/03/04 09:07:20;;;;;;;53.22;26.52;;;5.90;47.40;;;;;;5022390;28;20421;-43
2022/03/04 09:09:49;;;;;;;50.47;25.73;;;5.90;47.30;;;;;;5022508;28;20057;-43
2022/03/04 09:12:18;;;;;;;51.03;26.30;;;6.10;47.40;;;;;;5020896;28;20053;-43
2022/03/04 09:14:46;;;;;;;52.40;26.20;;;6.10;47.40;;;;;;5021655;28;20490;-42
2022/03/04 09:17:14;;;;;;;46.55;25.52;;;6.20;47.50;;;;;;5020782;28;20057;-41
2022/03/04 09:19:43;;;;;;;52.85;27.40;;;6.30;47.60;;;;;;5021630;28;20057;-43
2022/03/04 09:22:11;;;;;;;48.30;25.70;;;6.40;47.60;;;;;;5011335;28;20087;-42
2022/03/04 09:24:40;;;;;;;51.13;26.27;;;6.50;47.50;;;;;;5012053;28;20084;-42
2022/03/04 09:27:08;;;;;;;60.85;28.00;;;6.60;47.40;;;;;;5010439;28;20053;-42
2022/03/04 09:29:36;;;;;;;51.60;26.90;;;6.60;47.40;;;;;;5011814;28;20563;-41
2022/03/04 09:32:05;;;;;;;44.95;25.00;;;6.70;47.40;;;;;;5013093;28;20060;-41
2022/03/04 09:34:33;;;;;;;52.58;27.45;;;6.80;47.20;;;;;;5012541;28;20058;-41
2022/03/04 09:37:02;;;;;;;50.03;27.88;;;6.90;47.00;;;;;;5019140;28;20064;-41
2022/03/04 09:39:29;;;;;;;57.67;27.75;;;7.00;46.80;;;;;;5019319;28;20049;-42
2022/03/04 09:41:59;;;;;;;49.65;26.08;;;7.10;46.50;;;;;;5008662;28;20064;-44
2022/03/04 09:44:26;;;;;;;52.00;26.95;;;7.10;46.30;;;;;;5010183;28;20057;-42
2022/03/04 09:46:56;;;;;;;49.28;26.92;;;7.20;46.10;;;;;;5012547;28;20050;-44
2022/03/04 09:49:30;;;;;;;48.55;25.88;;;7.30;46.20;;;;;;5008867;28;20049;-42
2022/03/04 09:51:58;;;;;;;55.70;28.15;;;7.40;46.20;;;;;;5008994;28;20053;-42
2022/03/04 09:54:29;;;;;;;54.90;28.05;;;7.50;46.20;;;;;;5008101;28;20053;-42
2022/03/04 09:56:57;;;;;;;47.63;26.65;;;7.60;46.50;;;;;;5010059;28;20049;-41
2022/03/04 09:59:25;;;;;;;56.58;27.08;;;7.60;46.40;;;;;;5010006;28;20427;-42
2022/03/04 10:01:53;;;;;;;53.80;28.45;;;7.70;46.30;;;;;;5004687;28;20413;-42
2022/03/04 10:04:27;;;;;;;61.58;28.95;;;7.80;46.10;;;;;;5008184;28;20049;-42
2022/03/04 10:06:55;;;;;;;;;;;7.90;46.00;;;;;;5006335;28;20057;-42
2022/03/04 10:09:43;;;;;;;53.45;26.98;;;7.90;45.90;;;;;;5013399;28;19924;-41
2022/03/04 10:12:12;;;;;;;53.65;27.30;;;8.00;45.40;;;;;;5010200;28;20056;-44
2022/03/04 10:14:59;;;;;;;54.75;28.30;;;8.10;45.10;;;;;;5007017;28;20061;-41
2022/03/04 10:17:27;;;;;;;54.83;27.08;;;8.20;45.30;;;;;;5009414;28;20061;-42
2022/03/04 10:19:56;;;;;;;59.50;29.60;;;8.20;45.40;;;;;;5002772;28;20049;-42
2022/03/04 10:22:33;;;;;;;58.92;29.23;;;8.30;45.30;;;;;;5004412;28;20048;-42
2022/03/04 10:25:03;;;;;;;60.42;29.58;;;8.30;45.00;;;;;;5004094;28;20053;-42
2022/03/04 10:27:35;;;;;;;62.83;30.50;;;8.40;44.90;;;;;;5012919;28;20061;-42
2022/03/04 10:30:03;;;;;;;53.45;28.38;;;8.40;45.00;;;;;;5005827;28;20413;-41
2022/03/04 10:32:33;;;;;;;53.40;26.67;;;8.50;45.00;;;;;;5006402;28;20481;-43
2022/03/04 10:35:03;;;;;;;51.15;27.02;;;8.50;44.80;;;;;;5005154;28;20057;-42
2022/03/04 10:37:42;;;;;;;51.33;27.73;;;8.60;44.70;;;;;;5006076;28;20073;-41
2022/03/04 10:40:15;;;;;;;51.33;26.55;;;8.60;44.40;;;;;;5003664;28;20057;-42
2022/03/04 10:42:53;;;;;;;53.63;28.15;;;8.70;44.40;;;;;;5000942;28;20444;-44
2022/03/04 10:45:24;;;;;;;54.20;27.70;;;8.80;44.30;;;;;;5009932;28;20053;-42
2022/03/04 10:47:54;;;;;;;51.78;25.90;;;8.80;44.40;;;;;;5021357;28;20049;-42
2022/03/04 10:50:29;;;;;;;53.92;27.27;;;8.90;44.20;;;;;;5011206;28;20049;-42
2022/03/04 10:52:59;;;;;;;48.45;26.13;;;8.90;44.00;;;;;;5002324;28;20064;-42
2022/03/04 10:55:31;;;;;;;47.90;26.42;;;9.00;43.80;;;;;;5005520;28;20057;-42
2022/03/04 10:57:59;;;;;;;49.92;26.55;;;9.00;43.80;;;;;;5007789;28;20410;-42
2022/03/04 11:00:29;;;;;;;50.42;25.20;;;9.10;43.70;;;;;;5001789;28;20585;-42
2022/03/04 11:02:57;;;;;;;47.42;25.92;;;9.10;43.40;;;;;;4999919;28;20054;-43
2022/03/04 11:05:25;;;;;;;47.67;23.90;;;9.20;43.00;;;;;;5001092;28;20053;-41
2022/03/04 11:07:53;;;;;;;49.13;25.55;;;9.20;43.00;;;;;;5002421;28;20061;-43
2022/03/04 11:10:22;;;;;;;49.88;25.40;;;9.30;43.10;;;;;;5015498;28;20049;-42
2022/03/04 11:12:53;;;;;;;51.80;25.30;;;9.30;42.80;;;;;;5016156;28;20060;-45
2022/03/04 11:15:22;;;;;;;52.97;26.67;;;9.40;42.70;;;;;;5007387;28;20056;-42
2022/03/04 11:17:51;;;;;;;50.17;24.35;;;9.50;42.50;;;;;;5008399;28;20145;-41
2022/03/04 11:20:20;;;;;;;47.42;26.25;;;9.50;42.40;;;;;;5015225;28;20057;-41
2022/03/04 11:22:53;;;;;;;44.13;24.70;;;9.50;42.10;;;;;;5018618;28;20061;-43
2022/03/04 11:25:22;;;;;;;51.58;25.25;;;9.60;41.90;;;;;;5017608;28;20050;-44
2022/03/04 11:27:52;;;;;;;45.67;25.58;;;9.60;41.60;;;;;;5013363;28;20056;-43
2022/03/04 11:30:32;;;;;;;43.67;24.45;;;9.70;41.80;;;;;;5008192;28;20053;-44
2022/03/04 11:33:04;;;;;;;41.78;22.02;;;9.70;42.10;;;;;;5011736;28;20052;-45
2022/03/04 11:35:57;;;;;;;38.33;20.90;;;9.80;41.70;;;;;;5007363;28;20068;-42
2022/03/04 11:38:54;;;;;;;40.53;20.92;;;9.80;41.40;;;;;;5013539;28;20429;-42
2022/03/04 11:41:26;;;;;;;39.60;21.45;;;9.90;41.20;;;;;;4997401;28;20065;-45
2022/03/04 11:43:57;;;;;;;41.53;21.90;;;9.90;41.30;;;;;;4987128;28;20054;-43
2022/03/04 11:46:27;;;;;;;44.35;22.45;;;9.90;41.40;;;;;;4987120;28;20058;-42
2022/03/04 11:49:41;;;;;;;42.20;20.55;;;10.00;41.20;;;;;;4988999;28;20098;-42
2022/03/04 11:52:31;;;;;;;42.30;22.00;;;10.00;41.00;;;;;;4930182;28;20550;-41
2022/03/04 11:55:26;;;;;;;42.15;21.17;;;10.00;40.50;;;;;;4983873;28;20050;-44
2022/03/04 11:58:06;;;;;;;37.92;20.58;;;10.10;40.40;;;;;;4993979;28;20050;-42
2022/03/04 12:00:39;;;;;;;43.60;21.45;;;10.10;40.10;;;;;;4991870;28;20387;-42
2022/03/04 12:03:19;;;;;;;46.15;22.70;;;10.10;40.00;;;;;;4990206;28;20065;-43
2022/03/04 12:05:51;;;;;;;38.95;20.25;;;10.10;39.60;;;;;;4988489;28;20057;-43
2022/03/04 12:08:19;;;;;;;34.85;19.02;;;10.10;39.70;;;;;;4990396;28;20065;-42
2022/03/04 12:10:53;;;;;;;33.42;18.45;;;10.20;39.10;;;;;;4989702;28;20058;-42
2022/03/04 12:13:24;;;;;;;34.72;18.13;;;10.20;38.70;;;;;;4988855;28;20054;-42
2022/03/04 12:15:58;;;;;;;42.72;19.25;;;10.20;38.70;;;;;;4988950;28;20179;-42
2022/03/04 12:18:42;;;;;;;35.00;18.80;;;10.20;39.00;;;;;;4991910;28;20061;-42
2022/03/04 12:21:26;;;;;;;35.10;19.80;;;10.30;38.80;;;;;;4988503;28;20050;-42
2022/03/04 12:24:01;;;;;;;31.67;18.00;;;10.30;39.00;;;;;;4986750;28;20053;-42
2022/03/04 12:26:37;;;;;;;34.42;17.40;;;10.40;38.90;;;;;;4990269;28;20050;-43
2022/03/04 12:29:07;;;;;;;39.40;19.40;;;10.40;39.00;;;;;;4992690;28;20049;-42
2022/03/04 12:31:41;;;;;;;36.53;20.70;;;10.50;39.10;;;;;;4992950;28;20054;-41
2022/03/04 12:34:21;;;;;;;35.35;20.35;;;10.50;38.70;;;;;;4991723;28;20058;-41
2022/03/04 12:36:52;;;;;;;37.95;19.27;;;10.50;38.20;;;;;;4995974;28;20520;-43
2022/03/04 12:39:21;;;;;;;35.47;18.60;;;10.60;38.10;;;;;;4994317;28;20050;-44
2022/03/04 12:41:50;;;;;;;28.48;16.10;;;10.60;37.80;;;;;;4996971;28;20060;-48
2022/03/04 12:44:18;;;;;;;27.27;16.63;;;10.70;37.60;;;;;;5011235;28;20053;-41
2022/03/04 12:46:52;;;;;;;28.98;16.63;;;10.70;37.60;;;;;;5015109;28;20061;-41